KINL/INL METAR and TAF weather

Enter ICAO airport designator
Station Type Date Time Source
KINL METAR 2019/10/15 22:18 UTC NOAA

KINL 152218Z AUTO 31007KT 7SM SCT010 OVC018 06/04 A2997 RMK AO2 RAE06 P0000 T00560039


Station Type Date Time Source
KINL Decoded METAR 2019/10/15 22:18 UTC NOAA

FALLS INTERNATIONAL AIRPORT , MN, United States (KINL) 48-34N 093-24W 360M
Oct 15, 2019 - 06:18 PM EDT / 2019.10.15 2218 UTC
Wind: from the NW (310 degrees) at 8 MPH (7 KT):0
Visibility: 7 mile(s):0
Sky conditions: overcast
Precipitation last hour: A trace
Temperature: 42.1 F (5.6 C)
Dew Point: 39.0 F (3.9 C)
Relative Humidity: 88%
Pressure (altimeter): 29.97 in. Hg (1014 hPa)
ob: KINL 152218Z AUTO 31007KT 7SM SCT010 OVC018 06/04 A2997 RMK AO2 RAE06 P0000 T00560039
cycle: 22

Station Type Date Time Source
KINL TAF 2019/10/15 22:51 UTC NOAA

TAF
AMD KINL 152149Z 1522/1618 36005KT 6SM -SHRA BKN010 OVC030
TEMPO 1522/1523 2SM -SHRA BR OVC012
FM152300 34007KT P6SM OVC015
FM161200 00000KT P6SM OVC009
FM161600 VRB03KT P6SM OVC015

Example: see airport list